sensor_id;sensor_type;location;lat;lon;timestamp;P1;durP1;ratioP1;P2;durP2;ratioP2
2750;SDS011;1383;48.362;10.908;2024-02-23T00:01:07;0.70;;;0.60;;
2750;SDS011;1383;48.362;10.908;2024-02-23T00:03:39;0.50;;;0.40;;
2750;SDS011;1383;48.362;10.908;2024-02-23T09:30:57;1.37;;;1.13;;
2750;SDS011;1383;48.362;10.908;2024-02-23T09:33:24;4.40;;;1.00;;
2750;SDS011;1383;48.362;10.908;2024-02-23T09:35:51;1.60;;;1.10;;
2750;SDS011;1383;48.362;10.908;2024-02-23T09:38:18;2.40;;;1.10;;
2750;SDS011;1383;48.362;10.908;2024-02-23T09:40:46;1.07;;;0.97;;
2750;SDS011;1383;48.362;10.908;2024-02-23T09:43:13;1.63;;;0.90;;
2750;SDS011;1383;48.362;10.908;2024-02-23T09:45:42;1.17;;;0.83;;
2750;SDS011;1383;48.362;10.908;2024-02-23T09:48:10;2.70;;;0.90;;
2750;SDS011;1383;48.362;10.908;2024-02-23T09:50:38;2.47;;;1.27;;
2750;SDS011;1383;48.362;10.908;2024-02-23T09:53:08;1.90;;;0.97;;
2750;SDS011;1383;48.362;10.908;2024-02-23T09:55:38;1.43;;;1.00;;
2750;SDS011;1383;48.362;10.908;2024-02-23T09:58:11;1.77;;;1.00;;
2750;SDS011;1383;48.362;10.908;2024-02-23T11:10:41;4.13;;;1.50;;
2750;SDS011;1383;48.362;10.908;2024-02-23T11:13:38;1.03;;;0.70;;
2750;SDS011;1383;48.362;10.908;2024-02-23T11:16:07;1.83;;;0.97;;
2750;SDS011;1383;48.362;10.908;2024-02-23T14:45:57;3.70;;;0.70;;
2750;SDS011;1383;48.362;10.908;2024-02-23T14:48:46;1.27;;;0.70;;
2750;SDS011;1383;48.362;10.908;2024-02-23T15:02:02;0.70;;;0.67;;
2750;SDS011;1383;48.362;10.908;2024-02-23T15:19:14;1.43;;;0.93;;
2750;SDS011;1383;48.362;10.908;2024-02-23T15:21:41;1.57;;;0.67;;
2750;SDS011;1383;48.362;10.908;2024-02-23T15:24:08;0.70;;;0.70;;
2750;SDS011;1383;48.362;10.908;2024-02-23T15:26:36;1.23;;;0.90;;
2750;SDS011;1383;48.362;10.908;2024-02-23T15:47:53;2.00;;;0.80;;
2750;SDS011;1383;48.362;10.908;2024-02-23T17:36:31;3.28;;;1.00;;
2750;SDS011;1383;48.362;10.908;2024-02-23T17:38:58;1.15;;;0.50;;
2750;SDS011;1383;48.362;10.908;2024-02-23T17:41:43;1.65;;;0.85;;
2750;SDS011;1383;48.362;10.908;2024-02-23T17:44:19;2.45;;;1.50;;
2750;SDS011;1383;48.362;10.908;2024-02-23T17:46:47;3.28;;;1.85;;
2750;SDS011;1383;48.362;10.908;2024-02-23T17:49:14;3.97;;;0.98;;
2750;SDS011;1383;48.362;10.908;2024-02-23T17:51:42;0.95;;;0.52;;
2750;SDS011;1383;48.362;10.908;2024-02-23T17:54:09;1.45;;;0.65;;
2750;SDS011;1383;48.362;10.908;2024-02-23T17:56:35;1.35;;;0.80;;
2750;SDS011;1383;48.362;10.908;2024-02-23T17:59:03;0.93;;;0.88;;
2750;SDS011;1383;48.362;10.908;2024-02-23T18:01:31;1.27;;;0.93;;
2750;SDS011;1383;48.362;10.908;2024-02-23T18:04:03;1.60;;;1.50;;
2750;SDS011;1383;48.362;10.908;2024-02-23T18:06:30;2.47;;;1.00;;
2750;SDS011;1383;48.362;10.908;2024-02-23T18:09:23;2.00;;;0.88;;
2750;SDS011;1383;48.362;10.908;2024-02-23T18:12:00;3.22;;;1.90;;
2750;SDS011;1383;48.362;10.908;2024-02-23T18:14:27;1.83;;;1.42;;
2750;SDS011;1383;48.362;10.908;2024-02-23T18:16:55;1.67;;;0.95;;
2750;SDS011;1383;48.362;10.908;2024-02-23T18:19:22;0.60;;;0.60;;
2750;SDS011;1383;48.362;10.908;2024-02-23T18:22:06;1.63;;;1.00;;
2750;SDS011;1383;48.362;10.908;2024-02-23T18:24:36;4.97;;;1.25;;
2750;SDS011;1383;48.362;10.908;2024-02-23T18:27:03;1.20;;;1.10;;
2750;SDS011;1383;48.362;10.908;2024-02-23T18:29:40;2.03;;;1.80;;
2750;SDS011;1383;48.362;10.908;2024-02-23T18:35:28;1.45;;;1.35;;
2750;SDS011;1383;48.362;10.908;2024-02-23T18:37:56;3.75;;;1.13;;
2750;SDS011;1383;48.362;10.908;2024-02-23T18:40:23;2.95;;;1.30;;
2750;SDS011;1383;48.362;10.908;2024-02-23T19:31:37;1.73;;;1.58;;
2750;SDS011;1383;48.362;10.908;2024-02-23T19:55:00;3.35;;;3.05;;
2750;SDS011;1383;48.362;10.908;2024-02-23T20:12:47;3.65;;;2.40;;
2750;SDS011;1383;48.362;10.908;2024-02-23T20:27:14;2.95;;;1.63;;
2750;SDS011;1383;48.362;10.908;2024-02-23T20:41:17;3.53;;;3.10;;
2750;SDS011;1383;48.362;10.908;2024-02-23T20:43:46;3.42;;;2.97;;
2750;SDS011;1383;48.362;10.908;2024-02-23T20:46:17;4.28;;;3.20;;
2750;SDS011;1383;48.362;10.908;2024-02-23T20:48:52;4.05;;;3.63;;
2750;SDS011;1383;48.362;10.908;2024-02-23T20:51:19;3.30;;;2.60;;
2750;SDS011;1383;48.362;10.908;2024-02-23T20:53:47;2.80;;;2.47;;
2750;SDS011;1383;48.362;10.908;2024-02-23T20:56:14;5.63;;;4.45;;
2750;SDS011;1383;48.362;10.908;2024-02-23T20:58:41;4.32;;;3.25;;
2750;SDS011;1383;48.362;10.908;2024-02-23T21:01:08;5.50;;;3.90;;
2750;SDS011;1383;48.362;10.908;2024-02-23T21:03:36;4.88;;;3.22;;
2750;SDS011;1383;48.362;10.908;2024-02-23T21:06:06;3.00;;;2.63;;
2750;SDS011;1383;48.362;10.908;2024-02-23T21:08:36;3.55;;;3.25;;
2750;SDS011;1383;48.362;10.908;2024-02-23T21:11:04;3.95;;;3.55;;
2750;SDS011;1383;48.362;10.908;2024-02-23T21:13:30;3.17;;;2.90;;
2750;SDS011;1383;48.362;10.908;2024-02-23T21:15:57;3.53;;;3.22;;
2750;SDS011;1383;48.362;10.908;2024-02-23T21:18:24;4.32;;;3.58;;
2750;SDS011;1383;48.362;10.908;2024-02-23T21:20:51;3.35;;;2.85;;
2750;SDS011;1383;48.362;10.908;2024-02-23T21:23:19;3.10;;;2.42;;
2750;SDS011;1383;48.362;10.908;2024-02-23T21:25:47;7.53;;;4.32;;
2750;SDS011;1383;48.362;10.908;2024-02-23T21:28:15;3.30;;;2.15;;
2750;SDS011;1383;48.362;10.908;2024-02-23T21:30:43;3.05;;;2.50;;
2750;SDS011;1383;48.362;10.908;2024-02-23T21:33:14;2.75;;;2.50;;
2750;SDS011;1383;48.362;10.908;2024-02-23T21:35:41;5.75;;;4.43;;
2750;SDS011;1383;48.362;10.908;2024-02-23T21:38:08;5.82;;;4.15;;
2750;SDS011;1383;48.362;10.908;2024-02-23T21:40:35;5.00;;;3.40;;
2750;SDS011;1383;48.362;10.908;2024-02-23T21:43:03;3.42;;;2.35;;
2750;SDS011;1383;48.362;10.908;2024-02-23T21:45:30;4.15;;;2.95;;
2750;SDS011;1383;48.362;10.908;2024-02-23T21:47:57;3.38;;;2.50;;
2750;SDS011;1383;48.362;10.908;2024-02-23T21:55:46;4.82;;;3.60;;
2750;SDS011;1383;48.362;10.908;2024-02-23T21:58:13;3.35;;;3.00;;
2750;SDS011;1383;48.362;10.908;2024-02-23T22:00:40;3.55;;;3.25;;
2750;SDS011;1383;48.362;10.908;2024-02-23T22:03:08;3.47;;;2.40;;
2750;SDS011;1383;48.362;10.908;2024-02-23T22:05:35;3.63;;;2.47;;
2750;SDS011;1383;48.362;10.908;2024-02-23T22:08:01;4.13;;;2.65;;
2750;SDS011;1383;48.362;10.908;2024-02-23T22:10:29;4.13;;;2.00;;
2750;SDS011;1383;48.362;10.908;2024-02-23T22:12:56;3.05;;;1.80;;
2750;SDS011;1383;48.362;10.908;2024-02-23T22:15:22;1.92;;;1.38;;
2750;SDS011;1383;48.362;10.908;2024-02-23T22:17:49;3.10;;;1.95;;
2750;SDS011;1383;48.362;10.908;2024-02-23T22:20:16;2.13;;;1.80;;
2750;SDS011;1383;48.362;10.908;2024-02-23T22:22:43;3.28;;;2.10;;
2750;SDS011;1383;48.362;10.908;2024-02-23T22:25:10;3.42;;;2.80;;
2750;SDS011;1383;48.362;10.908;2024-02-23T22:27:42;2.70;;;2.08;;
2750;SDS011;1383;48.362;10.908;2024-02-23T22:30:10;2.30;;;2.10;;
2750;SDS011;1383;48.362;10.908;2024-02-23T22:32:38;4.00;;;3.00;;
2750;SDS011;1383;48.362;10.908;2024-02-23T22:35:05;4.40;;;2.97;;
2750;SDS011;1383;48.362;10.908;2024-02-23T22:37:33;4.40;;;3.13;;
2750;SDS011;1383;48.362;10.908;2024-02-23T22:39:59;3.13;;;2.75;;
2750;SDS011;1383;48.362;10.908;2024-02-23T22:42:27;2.97;;;2.22;;
2750;SDS011;1383;48.362;10.908;2024-02-23T22:44:54;2.17;;;2.03;;
2750;SDS011;1383;48.362;10.908;2024-02-23T22:47:22;3.38;;;2.13;;
2750;SDS011;1383;48.362;10.908;2024-02-23T22:49:49;2.60;;;2.30;;
2750;SDS011;1383;48.362;10.908;2024-02-23T22:52:17;3.70;;;2.97;;
2750;SDS011;1383;48.362;10.908;2024-02-23T22:54:44;3.35;;;3.08;;
2750;SDS011;1383;48.362;10.908;2024-02-23T22:57:11;4.32;;;2.55;;
2750;SDS011;1383;48.362;10.908;2024-02-23T22:59:38;4.72;;;3.20;;
2750;SDS011;1383;48.362;10.908;2024-02-23T23:02:05;2.92;;;2.72;;
2750;SDS011;1383;48.362;10.908;2024-02-23T23:04:32;4.10;;;3.47;;
2750;SDS011;1383;48.362;10.908;2024-02-23T23:06:58;4.93;;;2.58;;
2750;SDS011;1383;48.362;10.908;2024-02-23T23:09:26;4.60;;;3.55;;
2750;SDS011;1383;48.362;10.908;2024-02-23T23:11:53;3.22;;;2.92;;
2750;SDS011;1383;48.362;10.908;2024-02-23T23:14:20;4.40;;;2.80;;
2750;SDS011;1383;48.362;10.908;2024-02-23T23:16:50;4.35;;;2.97;;
2750;SDS011;1383;48.362;10.908;2024-02-23T23:19:17;3.08;;;2.63;;
2750;SDS011;1383;48.362;10.908;2024-02-23T23:21:45;4.95;;;2.92;;
2750;SDS011;1383;48.362;10.908;2024-02-23T23:24:14;5.85;;;2.72;;
2750;SDS011;1383;48.362;10.908;2024-02-23T23:26:41;5.00;;;3.10;;
2750;SDS011;1383;48.362;10.908;2024-02-23T23:29:11;5.90;;;4.25;;
2750;SDS011;1383;48.362;10.908;2024-02-23T23:31:39;2.90;;;2.70;;
2750;SDS011;1383;48.362;10.908;2024-02-23T23:34:06;4.80;;;3.67;;
2750;SDS011;1383;48.362;10.908;2024-02-23T23:36:33;4.55;;;4.15;;
2750;SDS011;1383;48.362;10.908;2024-02-23T23:39:03;5.80;;;5.20;;
2750;SDS011;1383;48.362;10.908;2024-02-23T23:41:31;5.15;;;4.07;;
2750;SDS011;1383;48.362;10.908;2024-02-23T23:44:17;4.15;;;3.75;;
2750;SDS011;1383;48.362;10.908;2024-02-23T23:46:44;4.47;;;4.05;;
2750;SDS011;1383;48.362;10.908;2024-02-23T23:49:11;3.53;;;2.80;;
2750;SDS011;1383;48.362;10.908;2024-02-23T23:51:38;2.90;;;2.25;;
2750;SDS011;1383;48.362;10.908;2024-02-23T23:54:21;3.78;;;3.45;;
2750;SDS011;1383;48.362;10.908;2024-02-23T23:56:49;5.55;;;4.63;;
2750;SDS011;1383;48.362;10.908;2024-02-23T23:59:16;3.95;;;3.63;;
